Upstream stations:
Downstream station:
SHEF ID: CAMK1 Grouse Creek nr Cameron KS
STATION TYPE:
PRECIP STAGE RIV-FLOW VOLTAGE BAT-LOAD
in ft cfs volt volt
Ccp-Rev Ccp-Rev Ccp-Rev Ccp-Rev Ccp-Rev
(US/Central)
08/17 00:00 0.00 10.02 30 12.84 12.54
08/17 01:00 0.00 10.02 30 12.83 12.53
08/17 02:00 0.00 9.99 27 12.83 12.53
08/17 03:00 0.00 10.00 28 12.81 12.51
08/17 04:00 0.00 10.01 29 12.80 12.49
08/17 05:00 0.00 10.00 28 12.79 12.48
08/17 06:00 0.00 9.99 27 12.77 12.47
08/17 07:00 0.00 10.03 31 12.76 12.44
08/17 08:00 0.00 10.00 28 12.77 12.45
08/17 09:00 0.00 10.00 28 13.05 12.61
08/17 10:00 0.00 10.00 28 13.62 13.26
08/17 11:00 0.00 10.02 30 14.02 13.39
08/17 12:00 0.00 10.03 31 13.55 13.24
08/17 13:00 0.00 10.02 30 13.45 13.19
08/17 14:00 0.00 10.03 31 13.48 13.14
08/17 15:00 0.00 10.01 29 13.45 13.15
08/17 16:00 0.00 10.02 30 13.55 13.08
08/17 17:00 0.00 10.03 31 14.12 13.09
08/17 18:00 0.00 10.03 31 13.55 13.08
08/17 19:00 0.00 10.03 31 13.72 13.07
08/17 20:00 0.00 10.03 31 13.19 12.99
08/17 21:00 0.00 10.03 31 13.02 12.76
08/17 22:00 0.00 10.03 31 12.90 12.61
08/17 23:00 0.00 10.03 31 12.88 12.58